Terminal Aerodrome Forecast
Issued by NWS

Home | Current Version | Previous Version | Text Only | Print | Product List | Glossary On
Versions: 1 2 3 4 5 6 7 8 9 10 11 12 13 14 15 16 17 18 19 20 21 22 23 24 25 26 27 28 29 30 31 32 33 34 35 36 37 38 39 40 41 42 43 44 45 46 47 48 49 50
000
FTUS43 KLOT 310520
TAFGYY
TAF
KGYY 310520Z 3106/0106 35005KT P6SM BKN250
      TEMPO 3106/3110 3SM BR BCFG
     FM311200 01012KT P6SM SCT010
     FM311500 02014G18KT P6SM VCSH SCT025 BKN250
     FM311700 02014G21KT P6SM SCT025 BKN250
     FM010000 01012KT P6SM SKC=

USA.gov is the U.S. government's official web portal to all federal, state and local government web resources and services.